Time;durP1;ratioP1;P1;durP2;ratioP2;P2;SDS_P1;SDS_P2;PMS_P1;PMS_P2;Temp;Humidity;BMP_temperature;BMP_pressure;BME280_temperature;BME280_humidity;BME280_pressure;Samples;Min_cycle;Max_cycle;Signal;HPM_P1;HPM_P2
2023/12/01 00:00:32;;;;;;;30.87;22.80;;;3.00;31.30;;;;;;4973913;28;20202;-70
2023/12/01 00:02:58;;;;;;;31.47;22.07;;;3.00;31.30;;;;;;4975064;28;20270;-69
2023/12/01 00:05:24;;;;;;;29.40;23.73;;;3.00;31.30;;;;;;4975004;28;20180;-69
2023/12/01 00:07:49;;;;;;;28.70;22.80;;;2.90;31.80;;;;;;4975180;28;20456;-70
2023/12/01 00:10:15;;;;;;;33.97;22.30;;;2.80;31.60;;;;;;4973747;28;20303;-70
2023/12/01 00:12:41;;;;;;;28.23;20.03;;;2.80;33.60;;;;;;4973585;28;20269;-70
2023/12/01 00:15:07;;;;;;;29.58;21.70;;;2.90;34.00;;;;;;4975024;28;20687;-70
2023/12/01 00:17:33;;;;;;;30.57;22.73;;;2.80;33.60;;;;;;4974838;28;20287;-70
2023/12/01 00:19:58;;;;;;;27.13;21.87;;;2.80;33.60;;;;;;4973443;28;20268;-71
2023/12/01 00:22:24;;;;;;;36.60;22.83;;;2.80;34.20;;;;;;4974918;28;20192;-69
2023/12/01 00:24:50;;;;;;;27.10;20.47;;;2.70;34.50;;;;;;4974756;28;20728;-70
2023/12/01 00:27:15;;;;;;;26.97;22.30;;;2.80;34.10;;;;;;4973303;28;20204;-69
2023/12/01 00:29:42;;;;;;;27.60;21.70;;;2.80;34.40;;;;;;4974649;28;20192;-69
2023/12/01 00:32:07;;;;;;;29.50;21.92;;;2.80;34.40;;;;;;4974641;28;20184;-69
2023/12/01 00:34:33;;;;;;;25.33;21.63;;;2.80;33.80;;;;;;4973157;28;20180;-70
2023/12/01 00:36:59;;;;;;;25.73;19.77;;;2.90;34.10;;;;;;4974296;28;20187;-69
2023/12/01 00:39:25;;;;;;;30.07;20.40;;;2.90;32.30;;;;;;4973772;28;20221;-69
2023/12/01 00:41:51;;;;;;;28.53;21.03;;;2.90;31.60;;;;;;4973180;28;20450;-69
2023/12/01 00:44:17;;;;;;;27.00;21.50;;;2.80;31.10;;;;;;4974409;28;20513;-68
2023/12/01 00:46:42;;;;;;;23.17;19.53;;;2.90;33.40;;;;;;4974630;28;20279;-70
2023/12/01 00:49:08;;;;;;;22.93;18.10;;;2.90;32.50;;;;;;4974205;28;20212;-69
2023/12/01 00:51:33;;;;;;;22.57;19.10;;;2.80;31.90;;;;;;4974240;28;20253;-69
2023/12/01 00:53:59;;;;;;;20.00;17.20;;;3.00;31.30;;;;;;4974164;28;20276;-70
2023/12/01 00:56:24;;;;;;;24.57;17.73;;;3.10;31.20;;;;;;4973797;28;20206;-68
2023/12/01 00:58:50;;;;;;;24.17;18.73;;;3.10;29.70;;;;;;4972881;28;20199;-69
2023/12/01 01:01:17;;;;;;;27.87;21.13;;;3.10;29.20;;;;;;4972797;28;20188;-70
2023/12/01 01:03:43;;;;;;;23.30;18.80;;;3.20;28.70;;;;;;4974449;28;20167;-70
2023/12/01 01:06:10;;;;;;;29.70;19.50;;;3.20;28.60;;;;;;4973777;28;20181;-69
2023/12/01 01:08:35;;;;;;;25.35;19.27;;;3.20;28.50;;;;;;4974160;28;20199;-70
2023/12/01 01:11:01;;;;;;;23.80;19.27;;;3.20;28.10;;;;;;4973936;28;20744;-69
2023/12/01 01:13:28;;;;;;;20.97;17.30;;;3.20;27.80;;;;;;4973879;28;20188;-69
2023/12/01 01:15:54;;;;;;;25.15;17.35;;;3.20;27.60;;;;;;4973630;28;20521;-70
2023/12/01 01:18:22;;;;;;;25.40;17.35;;;3.20;28.00;;;;;;4973618;28;20204;-70
2023/12/01 01:20:48;;;;;;;27.73;18.45;;;3.20;27.20;;;;;;4973817;28;20183;-69
2023/12/01 01:23:14;;;;;;;19.40;15.50;;;3.20;27.00;;;;;;4973789;28;20180;-69
2023/12/01 01:25:40;;;;;;;20.70;17.77;;;3.20;27.20;;;;;;4973409;28;20179;-70
2023/12/01 01:28:05;;;;;;;25.47;18.90;;;3.10;26.30;;;;;;4973594;28;20254;-69
2023/12/01 01:30:31;;;;;;;23.87;17.20;;;3.00;27.20;;;;;;4973497;28;20185;-68
2023/12/01 01:32:56;;;;;;;19.03;14.93;;;2.90;27.00;;;;;;4972191;28;20278;-68
2023/12/01 01:35:22;;;;;;;23.27;14.40;;;3.00;27.10;;;;;;4971886;28;20201;-69
2023/12/01 01:37:47;;;;;;;19.47;16.30;;;3.00;26.20;;;;;;4973489;28;20247;-69
2023/12/01 01:40:14;;;;;;;19.43;14.70;;;3.00;26.00;;;;;;4973386;28;20263;-69
2023/12/01 01:42:39;;;;;;;21.25;15.00;;;2.90;25.90;;;;;;4973366;28;20184;-69
2023/12/01 01:45:05;;;;;;;20.20;14.70;;;2.90;27.00;;;;;;4973200;28;20193;-69
2023/12/01 01:47:34;;;;;;;20.40;14.82;;;3.00;26.20;;;;;;4971749;28;20708;-69
2023/12/01 01:50:01;;;;;;;22.23;17.70;;;3.00;26.50;;;;;;4973245;28;20211;-69
2023/12/01 01:52:27;;;;;;;22.55;16.27;;;3.00;25.90;;;;;;4973742;28;20264;-71
2023/12/01 01:54:53;;;;;;;19.80;16.13;;;2.90;24.90;;;;;;4973291;28;20289;-71
2023/12/01 01:57:19;;;;;;;21.37;17.10;;;2.80;26.10;;;;;;4971840;28;20285;-68
2023/12/01 01:59:44;;;;;;;20.23;15.27;;;2.90;26.30;;;;;;4971768;28;20186;-69
2023/12/01 02:02:10;;;;;;;20.00;14.40;;;2.80;26.30;;;;;;4972934;28;21050;-69
2023/12/01 02:04:36;;;;;;;20.10;16.80;;;2.90;27.00;;;;;;4973136;28;20187;-69
2023/12/01 02:07:02;;;;;;;19.90;15.57;;;2.80;25.80;;;;;;4971378;28;20669;-69
2023/12/01 02:09:31;;;;;;;20.70;17.00;;;2.80;26.90;;;;;;4972930;28;20170;-69
2023/12/01 02:11:57;;;;;;;21.17;16.33;;;2.90;26.20;;;;;;4973113;28;20187;-69
2023/12/01 02:14:23;;;;;;;19.67;15.30;;;2.80;25.80;;;;;;4972799;28;20190;-69
2023/12/01 02:16:49;;;;;;;24.15;18.42;;;2.70;26.90;;;;;;4971330;28;20222;-69
2023/12/01 02:19:15;;;;;;;20.47;16.30;;;2.60;26.80;;;;;;4972848;28;20590;-69
2023/12/01 02:21:45;;;;;;;23.57;16.90;;;2.50;26.70;;;;;;4973018;28;20423;-69
2023/12/01 02:24:11;;;;;;;21.75;16.75;;;2.50;27.90;;;;;;4972981;28;20179;-68
2023/12/01 02:26:37;;;;;;;21.63;16.80;;;2.50;28.30;;;;;;4972826;28;20521;-69
2023/12/01 02:29:04;;;;;;;24.93;17.20;;;2.60;26.80;;;;;;4972703;28;20811;-68
2023/12/01 02:31:29;;;;;;;22.48;16.23;;;2.50;26.70;;;;;;4972657;28;20173;-69
2023/12/01 02:33:55;;;;;;;18.83;16.53;;;2.50;26.70;;;;;;4972783;28;20186;-69
2023/12/01 02:36:21;;;;;;;19.95;14.52;;;2.50;26.70;;;;;;4972738;28;20292;-69
2023/12/01 02:38:47;;;;;;;17.57;15.17;;;2.40;27.10;;;;;;4972551;28;20273;-68
2023/12/01 02:41:13;;;;;;;18.23;15.40;;;2.50;26.70;;;;;;4971307;28;20182;-69
2023/12/01 02:43:39;;;;;;;18.13;14.45;;;2.50;26.70;;;;;;4972913;28;20195;-69
2023/12/01 02:46:04;;;;;;;20.93;15.60;;;2.50;26.20;;;;;;4971079;28;20772;-69
2023/12/01 02:48:30;;;;;;;19.63;14.70;;;2.40;25.40;;;;;;4972443;28;20763;-69
2023/12/01 02:50:56;;;;;;;20.37;14.00;;;2.40;26.70;;;;;;4972917;28;20672;-68
2023/12/01 02:53:21;;;;;;;19.43;16.40;;;2.40;26.70;;;;;;4972620;28;20182;-69
2023/12/01 02:55:47;;;;;;;20.67;14.67;;;2.40;26.70;;;;;;4972272;28;20206;-69
2023/12/01 02:58:12;;;;;;;19.40;14.60;;;2.40;26.70;;;;;;4972594;28;20679;-68
2023/12/01 03:00:42;;;;;;;19.10;15.60;;;2.40;26.70;;;;;;4972635;28;20175;-69
2023/12/01 03:03:07;;;;;;;18.60;14.25;;;2.30;26.60;;;;;;4973639;28;20182;-70
2023/12/01 03:05:33;;;;;;;19.27;15.43;;;2.10;26.50;;;;;;4976272;28;20609;-71
2023/12/01 03:07:58;;;;;;;16.70;13.53;;;2.10;28.80;;;;;;4974839;28;20254;-69
2023/12/01 03:10:24;;;;;;;19.53;15.63;;;2.10;29.30;;;;;;4976152;28;20178;-69
2023/12/01 03:12:50;;;;;;;26.63;15.60;;;2.10;29.30;;;;;;4974834;28;20218;-69
2023/12/01 03:15:20;;;;;;;19.80;14.73;;;2.20;28.90;;;;;;4974682;28;20215;-70
2023/12/01 03:17:46;;;;;;;21.23;15.35;;;2.20;28.40;;;;;;4976314;28;20605;-69
2023/12/01 03:20:14;;;;;;;19.05;14.60;;;2.30;27.90;;;;;;4975985;28;20635;-70
2023/12/01 03:22:42;;;;;;;22.83;16.23;;;2.30;27.60;;;;;;4976065;28;20189;-69
2023/12/01 03:25:11;;;;;;;18.67;14.00;;;2.20;27.40;;;;;;4975903;28;20175;-68
2023/12/01 03:27:41;;;;;;;20.05;16.65;;;2.10;27.90;;;;;;4974514;28;20213;-69
2023/12/01 03:30:15;;;;;;;23.63;16.70;;;2.10;27.80;;;;;;4976189;28;20204;-69
2023/12/01 03:32:46;;;;;;;20.95;16.23;;;2.10;27.40;;;;;;4974562;28;20560;-69
2023/12/01 03:35:13;;;;;;;19.17;15.57;;;2.00;28.60;;;;;;4975685;28;20207;-68
2023/12/01 03:37:38;;;;;;;19.35;16.38;;;2.00;29.00;;;;;;4975576;28;20201;-68
2023/12/01 03:40:08;;;;;;;22.17;18.80;;;2.00;29.40;;;;;;4975612;28;20184;-69
2023/12/01 03:42:37;;;;;;;18.77;15.77;;;2.00;29.70;;;;;;4974232;28;20715;-68
2023/12/01 03:45:06;;;;;;;22.27;15.35;;;2.00;29.40;;;;;;4975627;28;20178;-69
2023/12/01 03:47:32;;;;;;;19.48;15.30;;;2.10;29.90;;;;;;4975779;28;20213;-69
2023/12/01 03:49:58;;;;;;;19.50;16.10;;;2.10;29.50;;;;;;4976485;28;20264;-68
2023/12/01 03:52:24;;;;;;;17.53;14.20;;;2.10;29.20;;;;;;4976406;28;20224;-69
2023/12/01 03:54:49;;;;;;;20.27;14.67;;;2.10;28.80;;;;;;4976303;28;20178;-69
2023/12/01 03:57:15;;;;;;;16.57;14.37;;;2.20;28.60;;;;;;4975538;28;20190;-69
2023/12/01 03:59:40;;;;;;;18.17;15.23;;;2.20;27.50;;;;;;4975290;28;20198;-69
2023/12/01 04:02:06;;;;;;;18.13;14.53;;;2.20;27.40;;;;;;4975689;28;20204;-69
2023/12/01 04:04:31;;;;;;;21.07;16.93;;;2.20;27.40;;;;;;4975387;28;20227;-68
2023/12/01 04:06:57;;;;;;;16.07;14.07;;;2.20;27.60;;;;;;4974816;28;20567;-69
2023/12/01 04:09:22;;;;;;;15.53;13.47;;;2.20;27.10;;;;;;4975306;28;20192;-69
2023/12/01 04:11:48;;;;;;;15.67;13.30;;;2.20;27.40;;;;;;4974260;28;20219;-68
2023/12/01 04:14:14;;;;;;;19.15;15.55;;;2.20;27.10;;;;;;4974262;28;20254;-68
2023/12/01 04:16:39;;;;;;;17.67;15.47;;;2.10;27.90;;;;;;4974916;28;20210;-69
2023/12/01 04:19:06;;;;;;;21.80;15.20;;;2.10;28.00;;;;;;4975174;28;20210;-69
2023/12/01 04:21:31;;;;;;;21.25;16.58;;;2.10;27.70;;;;;;4975224;28;20178;-69
2023/12/01 04:23:57;;;;;;;20.47;17.43;;;2.00;29.00;;;;;;4975125;28;20178;-68
2023/12/01 04:26:22;;;;;;;21.80;16.77;;;2.10;29.40;;;;;;4975133;28;20235;-69
2023/12/01 04:28:48;;;;;;;21.93;17.77;;;2.00;29.40;;;;;;4975312;28;20554;-68
2023/12/01 04:31:13;;;;;;;17.27;14.67;;;2.00;29.60;;;;;;4975006;28;20185;-68
2023/12/01 04:33:39;;;;;;;21.50;16.00;;;2.00;30.50;;;;;;4975193;28;20181;-69
2023/12/01 04:36:06;;;;;;;25.03;16.97;;;1.90;29.70;;;;;;4975039;28;20525;-69
2023/12/01 04:38:34;;;;;;;18.45;15.77;;;1.90;30.60;;;;;;4975811;28;20200;-68
2023/12/01 04:41:01;;;;;;;20.35;16.70;;;2.00;29.70;;;;;;4975766;28;20169;-68
2023/12/01 04:43:28;;;;;;;22.52;17.13;;;2.00;30.50;;;;;;4975336;28;20234;-69
2023/12/01 04:45:53;;;;;;;22.17;17.08;;;2.00;30.30;;;;;;4975140;28;20207;-68
2023/12/01 04:48:19;;;;;;;24.17;17.93;;;2.00;29.40;;;;;;4974061;28;20724;-69
2023/12/01 04:50:47;;;;;;;17.13;14.45;;;1.90;29.70;;;;;;4975191;28;20192;-69
2023/12/01 04:53:12;;;;;;;20.98;16.05;;;1.80;29.60;;;;;;4974893;28;20197;-68
2023/12/01 04:55:38;;;;;;;20.20;16.47;;;1.70;30.20;;;;;;4974610;28;20220;-68
2023/12/01 04:58:03;;;;;;;20.63;16.63;;;1.80;31.50;;;;;;4974907;28;20198;-69
2023/12/01 05:00:29;;;;;;;18.77;14.40;;;1.80;30.30;;;;;;4974660;28;20175;-69
2023/12/01 05:03:00;;;;;;;17.77;15.57;;;1.80;31.10;;;;;;4974407;28;20196;-68
2023/12/01 05:05:27;;;;;;;20.08;16.38;;;1.70;31.60;;;;;;4973002;28;21023;-68
2023/12/01 05:07:57;;;;;;;16.95;15.15;;;1.70;32.80;;;;;;4974292;28;20205;-69
2023/12/01 05:10:23;;;;;;;20.00;15.50;;;1.70;33.70;;;;;;4974223;28;20249;-68
2023/12/01 05:12:54;;;;;;;18.05;15.43;;;1.80;33.40;;;;;;4974075;28;20273;-68
2023/12/01 05:15:24;;;;;;;19.98;15.40;;;1.80;32.50;;;;;;4973904;28;20201;-68
2023/12/01 05:17:51;;;;;;;17.70;14.82;;;1.80;32.10;;;;;;4974160;28;20601;-69
2023/12/01 05:20:18;;;;;;;17.35;14.25;;;1.90;32.40;;;;;;4974329;28;20181;-68
2023/12/01 05:22:48;;;;;;;17.00;14.25;;;2.00;30.70;;;;;;4973918;28;20176;-68
2023/12/01 05:25:15;;;;;;;19.52;15.30;;;2.00;30.50;;;;;;4973257;28;20183;-68
2023/12/01 05:27:47;;;;;;;18.60;15.27;;;2.00;30.10;;;;;;4973809;28;20220;-69
2023/12/01 05:30:14;;;;;;;17.58;13.95;;;2.00;29.40;;;;;;4973801;28;20174;-68
2023/12/01 05:32:44;;;;;;;18.23;15.18;;;2.00;28.10;;;;;;4974044;28;20384;-68
2023/12/01 05:35:10;;;;;;;17.42;13.45;;;2.00;29.10;;;;;;4972223;28;20638;-69
2023/12/01 05:37:48;;;;;;;16.40;12.75;;;2.00;28.70;;;;;;4973674;28;20288;-69
2023/12/01 05:40:15;;;;;;;17.33;13.88;;;2.00;29.80;;;;;;4973693;28;20276;-67
2023/12/01 05:42:42;;;;;;;17.42;15.48;;;2.00;29.20;;;;;;4973390;28;20196;-68
2023/12/01 05:45:12;;;;;;;17.50;15.48;;;1.90;30.00;;;;;;4973350;28;20177;-68
2023/12/01 05:47:48;;;;;;;18.33;14.52;;;2.00;29.10;;;;;;4973248;28;20213;-69
2023/12/01 05:50:16;;;;;;;19.08;15.50;;;1.90;29.40;;;;;;4972147;28;20197;-71
2023/12/01 05:52:45;;;;;;;17.50;15.57;;;1.90;29.00;;;;;;4973368;28;20178;-71
2023/12/01 05:55:15;;;;;;;16.40;14.25;;;1.80;30.10;;;;;;4973776;28;20208;-70
2023/12/01 05:57:45;;;;;;;17.33;14.38;;;1.80;30.40;;;;;;4974803;28;20589;-70
2023/12/01 06:00:12;;;;;;;16.60;14.02;;;1.80;31.80;;;;;;4975392;28;20194;-70
2023/12/01 06:02:41;;;;;;;18.08;13.60;;;1.90;31.80;;;;;;4977279;28;20174;-69
2023/12/01 06:05:07;;;;;;;15.00;13.27;;;1.90;30.40;;;;;;4977209;28;20186;-70
2023/12/01 06:07:33;;;;;;;18.33;13.27;;;1.90;30.40;;;;;;4978183;28;20243;-70
2023/12/01 06:09:58;;;;;;;17.47;14.90;;;1.90;30.40;;;;;;4978472;28;20451;-70
2023/12/01 06:12:24;;;;;;;15.90;11.53;;;1.90;30.40;;;;;;4977538;28;20449;-69
2023/12/01 06:14:49;;;;;;;14.23;11.97;;;1.90;30.40;;;;;;4973536;28;20186;-70
2023/12/01 06:17:15;;;;;;;14.80;12.60;;;1.90;30.60;;;;;;4972899;28;20194;-70
2023/12/01 06:19:40;;;;;;;16.97;13.67;;;1.90;30.80;;;;;;4974262;28;20185;-71
2023/12/01 06:22:07;;;;;;;16.20;14.37;;;1.90;30.40;;;;;;4972746;28;20182;-72
2023/12/01 06:24:33;;;;;;;15.13;13.15;;;1.80;31.00;;;;;;4973866;28;20258;-73
2023/12/01 06:27:00;;;;;;;14.27;11.97;;;1.80;30.30;;;;;;4976064;28;20580;-73
2023/12/01 06:29:26;;;;;;;16.90;13.18;;;1.80;31.50;;;;;;4973999;28;20207;-72
2023/12/01 06:31:51;;;;;;;18.43;14.07;;;1.70;32.60;;;;;;4973296;28;20272;-72
2023/12/01 06:34:17;;;;;;;15.23;11.73;;;1.70;32.80;;;;;;4972947;28;20218;-72
2023/12/01 06:36:43;;;;;;;14.40;11.70;;;1.70;32.80;;;;;;4974551;28;20213;-71
2023/12/01 06:39:10;;;;;;;16.30;13.30;;;1.70;33.50;;;;;;4977467;28;20681;-75
2023/12/01 06:41:37;;;;;;;16.13;13.02;;;1.60;33.60;;;;;;4979442;28;20177;-74
2023/12/01 06:44:05;;;;;;;15.95;13.27;;;1.60;33.40;;;;;;4977154;28;20608;-72
2023/12/01 06:46:31;;;;;;;18.17;13.60;;;1.70;34.90;;;;;;4977032;28;20598;-71
2023/12/01 06:48:57;;;;;;;16.47;12.50;;;1.70;33.20;;;;;;4977460;28;20288;-71
2023/12/01 06:51:22;;;;;;;15.63;12.57;;;1.70;34.70;;;;;;4977522;28;20394;-69
2023/12/01 06:53:48;;;;;;;17.27;13.27;;;1.70;34.00;;;;;;4972680;28;20219;-69
2023/12/01 06:56:13;;;;;;;17.60;14.13;;;1.70;33.30;;;;;;4975828;28;20216;-68
2023/12/01 06:58:39;;;;;;;18.37;14.77;;;1.80;33.50;;;;;;4976059;28;20196;-68
2023/12/01 07:01:05;;;;;;;15.37;13.77;;;1.70;32.30;;;;;;4976182;28;20191;-69
2023/12/01 07:03:34;;;;;;;14.63;12.07;;;1.70;32.60;;;;;;4976070;28;20260;-69
2023/12/01 07:05:59;;;;;;;16.27;12.23;;;1.60;33.40;;;;;;4975677;28;20240;-69
2023/12/01 07:08:25;;;;;;;15.43;13.40;;;1.60;33.40;;;;;;4975810;28;20213;-68
2023/12/01 07:10:51;;;;;;;17.37;14.07;;;1.50;32.60;;;;;;4975791;28;20347;-68
2023/12/01 07:13:17;;;;;;;13.57;12.00;;;1.50;35.10;;;;;;4974693;28;20177;-69
2023/12/01 07:15:43;;;;;;;16.23;13.10;;;1.50;35.90;;;;;;4975334;28;20206;-69
2023/12/01 07:18:09;;;;;;;15.73;13.23;;;1.60;35.90;;;;;;4974205;28;20197;-69
2023/12/01 07:20:38;;;;;;;16.60;13.30;;;1.60;36.20;;;;;;4975813;28;20990;-69
2023/12/01 07:23:06;;;;;;;17.75;14.85;;;1.60;35.80;;;;;;4975323;28;20228;-69
2023/12/01 07:25:32;;;;;;;15.70;13.25;;;1.60;35.90;;;;;;4975484;28;20181;-68
2023/12/01 07:27:59;;;;;;;14.13;12.47;;;1.70;35.40;;;;;;4975556;28;20292;-68
2023/12/01 07:30:27;;;;;;;18.40;12.30;;;1.60;35.30;;;;;;4975337;28;20177;-68
2023/12/01 07:32:53;;;;;;;15.15;12.38;;;1.60;35.30;;;;;;4973786;28;20677;-68
2023/12/01 07:35:19;;;;;;;17.00;12.90;;;1.70;35.40;;;;;;4974814;28;20209;-68
2023/12/01 07:37:47;;;;;;;14.13;12.40;;;1.70;34.40;;;;;;4974994;28;20445;-68
2023/12/01 07:40:21;;;;;;;10.85;9.25;;;1.80;35.40;;;;;;4975420;28;20178;-70
2023/12/01 07:42:48;;;;;;;14.00;12.50;;;1.80;33.50;;;;;;4975151;28;20184;-68
2023/12/01 07:45:17;;;;;;;11.68;10.48;;;1.70;32.60;;;;;;4974857;28;20185;-69
2023/12/01 07:47:43;;;;;;;12.53;11.07;;;1.70;33.80;;;;;;4936933;28;1068672;-68
2023/12/01 07:50:09;;;;;;;10.35;9.13;;;1.70;32.60;;;;;;4975627;28;20194;-68
2023/12/01 07:52:38;;;;;;;13.23;9.60;;;1.70;33.40;;;;;;4975938;28;20241;-69
2023/12/01 07:55:07;;;;;;;13.23;11.40;;;1.70;33.00;;;;;;4976431;28;20264;-69
2023/12/01 07:57:32;;;;;;;13.15;11.70;;;1.70;32.30;;;;;;4976238;28;20186;-69
2023/12/01 07:59:58;;;;;;;13.00;11.63;;;1.70;32.20;;;;;;4975683;28;20212;-69
2023/12/01 08:02:24;;;;;;;13.90;12.27;;;1.70;32.70;;;;;;4976049;28;20211;-68
2023/12/01 08:04:49;;;;;;;12.17;9.83;;;1.80;34.10;;;;;;4974550;28;20178;-68
2023/12/01 08:07:15;;;;;;;15.57;12.43;;;1.80;32.30;;;;;;4975716;28;20197;-69
2023/12/01 08:09:42;;;;;;;16.50;11.73;;;1.80;31.60;;;;;;4976011;28;20262;-69
2023/12/01 08:12:08;;;;;;;12.38;9.75;;;1.80;31.70;;;;;;4976040;28;20201;-68
2023/12/01 08:14:33;;;;;;;12.00;10.10;;;1.70;31.20;;;;;;4975918;28;20672;-68
2023/12/01 08:16:59;;;;;;;13.30;9.90;;;1.70;32.50;;;;;;4975165;28;20476;-69
2023/12/01 08:19:24;;;;;;;10.90;9.07;;;1.90;33.10;;;;;;4975528;28;20169;-69
2023/12/01 08:21:50;;;;;;;11.03;9.40;;;2.00;31.00;;;;;;4975731;28;20233;-69
2023/12/01 08:24:20;;;;;;;9.80;8.60;;;2.00;30.50;;;;;;4975738;28;20627;-69
2023/12/01 08:26:49;;;;;;;11.85;9.48;;;2.00;29.40;;;;;;4975250;28;20699;-69
2023/12/01 08:29:15;;;;;;;10.02;8.07;;;2.00;29.10;;;;;;4974427;28;20403;-68
2023/12/01 08:31:41;;;;;;;11.73;7.90;;;2.10;28.90;;;;;;4974498;28;20222;-67
2023/12/01 08:34:10;;;;;;;9.30;7.60;;;2.10;28.60;;;;;;4975949;28;20185;-67
2023/12/01 08:36:35;;;;;;;10.48;7.47;;;2.10;28.40;;;;;;4975652;28;20238;-68
2023/12/01 08:39:02;;;;;;;8.80;7.40;;;2.10;28.70;;;;;;4975612;28;20195;-68
2023/12/01 08:41:28;;;;;;;9.70;8.02;;;2.20;27.50;;;;;;4975658;28;20166;-68
2023/12/01 08:43:53;;;;;;;11.63;8.00;;;2.20;28.00;;;;;;4979078;28;20524;-68
2023/12/01 08:46:19;;;;;;;11.73;9.27;;;2.20;27.50;;;;;;4976885;28;20175;-69
2023/12/01 08:48:44;;;;;;;10.70;8.40;;;2.20;26.50;;;;;;4971801;28;20656;-68
2023/12/01 08:51:10;;;;;;;13.20;9.57;;;2.20;28.10;;;;;;4974394;28;20578;-69
2023/12/01 08:53:38;;;;;;;13.17;9.60;;;2.20;27.50;;;;;;4979797;28;20599;-70
2023/12/01 08:56:04;;;;;;;9.85;8.52;;;2.20;27.10;;;;;;4993910;28;20208;-68
2023/12/01 08:58:30;;;;;;;10.48;9.32;;;2.30;27.50;;;;;;4993472;28;20198;-69
2023/12/01 09:00:55;;;;;;;11.57;9.40;;;2.40;27.30;;;;;;4970915;28;20612;-68
2023/12/01 09:03:21;;;;;;;14.10;11.47;;;2.40;26.10;;;;;;4979246;28;20639;-69
2023/12/01 09:05:47;;;;;;;12.90;10.23;;;2.50;26.70;;;;;;4982820;28;20187;-68
2023/12/01 09:08:12;;;;;;;13.00;9.50;;;2.60;26.70;;;;;;4972275;28;20864;-69
2023/12/01 09:10:38;;;;;;;10.67;8.87;;;2.80;25.70;;;;;;4975086;28;20238;-68
2023/12/01 09:13:04;;;;;;;12.63;10.10;;;2.80;24.10;;;;;;4982572;28;20553;-67
2023/12/01 09:15:30;;;;;;;14.20;10.17;;;2.80;21.90;;;;;;4974082;28;20457;-68
2023/12/01 09:17:56;;;;;;;13.83;9.60;;;2.70;21.70;;;;;;4988054;28;20453;-68
2023/12/01 09:20:22;;;;;;;9.38;8.15;;;2.60;22.70;;;;;;4972535;28;20201;-69
2023/12/01 09:22:47;;;;;;;12.33;9.63;;;2.70;23.30;;;;;;4980389;28;20180;-68
2023/12/01 09:25:13;;;;;;;8.87;7.97;;;2.90;24.00;;;;;;4974104;28;20270;-68
2023/12/01 09:27:42;;;;;;;10.23;7.57;;;2.90;23.00;;;;;;4974652;28;20224;-69
2023/12/01 09:30:13;;;;;;;12.48;11.10;;;2.90;22.00;;;;;;4975253;28;20719;-70
2023/12/01 09:32:39;;;;;;;9.63;7.88;;;3.00;22.00;;;;;;4980331;28;20204;-69
2023/12/01 09:35:06;;;;;;;12.75;10.18;;;3.20;20.00;;;;;;4974175;28;20722;-68
2023/12/01 09:37:31;;;;;;;10.43;7.75;;;3.10;20.30;;;;;;4974305;28;20192;-68
2023/12/01 09:39:57;;;;;;;11.60;8.40;;;3.20;20.90;;;;;;4974622;28;20259;-68
2023/12/01 09:42:24;;;;;;;11.73;8.43;;;3.20;18.90;;;;;;4979336;28;20249;-68
2023/12/01 09:44:54;;;;;;;12.13;9.27;;;3.20;19.00;;;;;;4973846;28;20203;-68
2023/12/01 09:47:21;;;;;;;9.85;8.85;;;3.20;19.00;;;;;;4982008;28;20972;-69
2023/12/01 09:49:49;;;;;;;12.23;10.32;;;3.20;18.30;;;;;;4993180;28;20173;-69
2023/12/01 09:52:15;;;;;;;12.30;8.65;;;3.00;18.70;;;;;;4991812;28;20192;-74
2023/12/01 09:54:41;;;;;;;11.40;8.67;;;3.00;19.40;;;;;;4974057;28;20739;-70
2023/12/01 09:57:06;;;;;;;13.87;10.20;;;2.90;18.80;;;;;;4979098;28;20465;-70
2023/12/01 09:59:38;;;;;;;11.73;9.50;;;2.90;19.80;;;;;;4993170;28;20191;-68
2023/12/01 10:02:04;;;;;;;10.85;9.52;;;2.90;19.50;;;;;;4988239;28;20205;-68
2023/12/01 10:04:31;;;;;;;11.63;8.82;;;2.90;19.90;;;;;;4972194;28;20192;-69
2023/12/01 10:06:57;;;;;;;10.27;9.30;;;3.00;20.50;;;;;;4989840;28;20273;-68
2023/12/01 10:09:27;;;;;;;13.10;10.23;;;3.00;20.90;;;;;;4976401;28;20184;-69
2023/12/01 10:12:12;;;;;;;11.93;9.00;;;3.00;21.20;;;;;;4971080;28;20184;-69
2023/12/01 10:14:42;;;;;;;12.82;11.10;;;2.90;21.10;;;;;;4972866;28;20192;-68
2023/12/01 10:17:12;;;;;;;10.45;8.80;;;2.90;21.00;;;;;;4972181;28;20211;-68
2023/12/01 10:19:47;;;;;;;11.60;8.48;;;2.90;22.00;;;;;;4973184;28;20213;-71
2023/12/01 10:22:13;;;;;;;10.73;8.77;;;3.00;21.40;;;;;;4972204;28;20372;-69
2023/12/01 10:24:39;;;;;;;11.27;10.18;;;3.10;21.10;;;;;;4971589;28;20190;-69
2023/12/01 10:27:08;;;;;;;11.93;10.50;;;3.30;19.10;;;;;;4972726;28;20253;-68
2023/12/01 10:29:38;;;;;;;10.07;8.27;;;3.40;17.80;;;;;;4973159;28;20548;-69
2023/12/01 10:32:07;;;;;;;9.98;8.90;;;3.60;17.40;;;;;;4973144;28;20178;-68
2023/12/01 10:34:33;;;;;;;9.40;7.60;;;3.60;16.40;;;;;;4972107;28;20720;-69
2023/12/01 10:37:00;;;;;;;8.82;6.60;;;3.50;16.10;;;;;;4969999;28;20284;-68
2023/12/01 10:39:27;;;;;;;8.63;6.45;;;3.60;16.80;;;;;;4973473;28;20179;-69
2023/12/01 10:41:57;;;;;;;9.50;7.85;;;3.80;15.10;;;;;;4972009;28;20176;-69
2023/12/01 10:44:25;;;;;;;11.52;8.93;;;3.80;14.40;;;;;;4973541;28;20563;-70
2023/12/01 10:46:56;;;;;;;8.55;7.53;;;3.80;14.50;;;;;;4973922;28;20185;-70
2023/12/01 10:49:22;;;;;;;8.18;7.35;;;3.80;13.40;;;;;;4972016;28;20198;-68
2023/12/01 10:51:52;;;;;;;9.20;7.28;;;3.80;14.30;;;;;;4973666;28;20202;-70
2023/12/01 10:54:26;;;;;;;10.10;7.60;;;3.90;13.80;;;;;;4973493;28;20176;-70
2023/12/01 10:57:17;;;;;;;10.88;7.95;;;3.90;13.90;;;;;;4973317;28;20206;-69
2023/12/01 10:59:50;;;;;;;9.88;7.82;;;4.00;13.10;;;;;;4974346;28;20172;-68
2023/12/01 11:02:17;;;;;;;8.90;8.00;;;4.00;12.20;;;;;;4974662;28;20252;-69
2023/12/01 11:04:45;;;;;;;9.45;7.40;;;3.90;12.90;;;;;;4973617;28;20213;-70
2023/12/01 11:07:39;;;;;;;9.32;7.78;;;3.70;13.70;;;;;;4973288;28;20265;-70
2023/12/01 11:10:30;;;;;;;9.50;8.20;;;3.50;14.40;;;;;;4973217;28;20566;-70
2023/12/01 11:13:26;;;;;;;10.55;8.35;;;3.50;15.70;;;;;;4973530;28;20754;-70
2023/12/01 11:15:54;;;;;;;12.77;10.25;;;3.40;16.10;;;;;;4973459;28;20206;-69
2023/12/01 11:18:20;;;;;;;11.60;9.90;;;3.20;15.80;;;;;;4973585;28;20531;-69
2023/12/01 11:20:46;;;;;;;14.73;9.80;;;3.00;17.90;;;;;;4973677;28;20207;-69
2023/12/01 11:23:12;;;;;;;12.03;9.40;;;2.80;18.70;;;;;;4974477;28;20184;-70
2023/12/01 11:25:48;;;;;;;13.03;11.07;;;2.70;20.30;;;;;;4976747;28;20804;-70
2023/12/01 11:34:00;;;;;;;17.48;12.45;;;2.60;21.80;;;;;;4976599;28;20662;-69
2023/12/01 11:36:49;;;;;;;17.38;12.50;;;2.50;22.00;;;;;;4976253;28;20353;-67
2023/12/01 11:39:16;;;;;;;16.13;12.82;;;2.40;22.60;;;;;;4974891;28;20203;-68
2023/12/01 11:41:42;;;;;;;17.08;12.40;;;2.40;23.00;;;;;;4976561;28;20257;-69
2023/12/01 11:44:24;;;;;;;19.57;13.03;;;2.40;23.80;;;;;;4976229;28;20256;-69
2023/12/01 11:46:55;;;;;;;18.52;12.88;;;2.40;24.10;;;;;;4976462;28;20278;-69
2023/12/01 11:49:24;;;;;;;14.10;10.77;;;2.30;24.80;;;;;;4976479;28;20202;-69
2023/12/01 11:51:49;;;;;;;14.07;11.00;;;2.10;24.60;;;;;;4975697;28;20333;-69
2023/12/01 11:54:15;;;;;;;13.37;10.53;;;2.20;25.90;;;;;;4976866;28;20217;-69
2023/12/01 11:56:47;;;;;;;16.20;11.57;;;2.20;26.20;;;;;;4976642;28;20218;-69
2023/12/01 11:59:12;;;;;;;11.27;9.10;;;2.40;25.70;;;;;;4976429;28;20220;-68
2023/12/01 12:01:41;;;;;;;11.83;9.20;;;2.40;24.20;;;;;;4976506;28;20171;-70
2023/12/01 12:04:13;;;;;;;9.98;7.40;;;2.40;25.20;;;;;;4974841;28;20181;-70
2023/12/01 12:06:39;;;;;;;11.00;8.60;;;2.40;25.20;;;;;;4975623;28;20714;-68
2023/12/01 12:09:08;;;;;;;9.10;7.53;;;2.40;24.50;;;;;;4975601;28;20207;-68
2023/12/01 12:11:40;;;;;;;13.95;9.57;;;2.50;25.30;;;;;;4975663;28;20472;-69
2023/12/01 12:14:06;;;;;;;15.15;9.98;;;2.50;24.40;;;;;;4975611;28;20179;-69
2023/12/01 12:16:32;;;;;;;9.70;8.33;;;2.40;22.60;;;;;;4973982;28;20214;-69
2023/12/01 12:18:59;;;;;;;10.50;7.50;;;2.40;23.50;;;;;;4975406;28;20584;-69
2023/12/01 12:21:25;;;;;;;10.00;7.45;;;2.40;22.60;;;;;;4975330;28;20447;-70
2023/12/01 12:23:51;;;;;;;11.27;8.50;;;2.30;23.70;;;;;;4975521;28;20262;-69
2023/12/01 12:26:18;;;;;;;15.30;10.10;;;2.20;23.50;;;;;;4973964;28;20210;-70
2023/12/01 12:28:52;;;;;;;15.73;10.32;;;2.10;24.60;;;;;;4975691;28;20208;-69
2023/12/01 12:31:19;;;;;;;10.68;8.82;;;2.00;25.20;;;;;;4975172;28;20304;-69
2023/12/01 12:33:46;;;;;;;11.73;8.63;;;1.90;26.40;;;;;;4975475;28;20186;-69
2023/12/01 12:36:16;;;;;;;11.70;8.52;;;2.00;26.50;;;;;;4972916;28;20213;-68
2023/12/01 12:38:41;;;;;;;14.35;10.52;;;1.90;28.00;;;;;;4973741;28;20206;-69
2023/12/01 12:41:32;;;;;;;8.80;7.83;;;1.90;28.30;;;;;;4975015;28;20196;-68
2023/12/01 12:43:59;;;;;;;14.48;10.18;;;1.80;27.30;;;;;;4969823;28;20287;-69
2023/12/01 12:46:27;;;;;;;15.18;9.20;;;1.90;28.70;;;;;;4975005;28;20181;-70